sensor_id;sensor_type;location;lat;lon;timestamp;temperature;humidity
73137;DHT22;62977;45.636;11.750;2023-01-15T00:01:49;5.40;82.40
73137;DHT22;62977;45.636;11.750;2023-01-15T00:04:15;5.50;82.70
73137;DHT22;62977;45.636;11.750;2023-01-15T00:06:42;5.40;82.90
73137;DHT22;62977;45.636;11.750;2023-01-15T00:09:13;5.60;82.80
73137;DHT22;62977;45.636;11.750;2023-01-15T00:11:38;5.50;82.50
73137;DHT22;62977;45.636;11.750;2023-01-15T00:14:04;5.60;82.40
73137;DHT22;62977;45.636;11.750;2023-01-15T00:16:30;5.60;82.40
73137;DHT22;62977;45.636;11.750;2023-01-15T00:18:58;5.70;82.30
73137;DHT22;62977;45.636;11.750;2023-01-15T00:21:25;5.60;82.40
73137;DHT22;62977;45.636;11.750;2023-01-15T00:23:52;5.60;82.30
73137;DHT22;62977;45.636;11.750;2023-01-15T00:26:36;5.70;82.20
73137;DHT22;62977;45.636;11.750;2023-01-15T00:29:22;5.80;82.20
73137;DHT22;62977;45.636;11.750;2023-01-15T00:34:19;5.80;82.10
73137;DHT22;62977;45.636;11.750;2023-01-15T00:36:45;5.70;82.20
73137;DHT22;62977;45.636;11.750;2023-01-15T00:39:10;5.80;82.10
73137;DHT22;62977;45.636;11.750;2023-01-15T00:41:36;5.90;82.20
73137;DHT22;62977;45.636;11.750;2023-01-15T00:44:02;5.90;82.00
73137;DHT22;62977;45.636;11.750;2023-01-15T00:46:27;5.80;82.00
73137;DHT22;62977;45.636;11.750;2023-01-15T00:48:53;5.80;82.00
73137;DHT22;62977;45.636;11.750;2023-01-15T00:51:19;5.80;82.20
73137;DHT22;62977;45.636;11.750;2023-01-15T00:53:44;5.60;82.30
73137;DHT22;62977;45.636;11.750;2023-01-15T00:56:10;5.60;82.20
73137;DHT22;62977;45.636;11.750;2023-01-15T00:58:35;5.70;82.10
73137;DHT22;62977;45.636;11.750;2023-01-15T01:01:01;5.60;82.30
73137;DHT22;62977;45.636;11.750;2023-01-15T01:03:27;5.80;82.20
73137;DHT22;62977;45.636;11.750;2023-01-15T01:05:58;5.50;82.10
73137;DHT22;62977;45.636;11.750;2023-01-15T01:08:24;5.40;82.30
73137;DHT22;62977;45.636;11.750;2023-01-15T01:10:55;5.70;82.30
73137;DHT22;62977;45.636;11.750;2023-01-15T01:13:25;5.60;82.40
73137;DHT22;62977;45.636;11.750;2023-01-15T01:15:50;5.60;82.40
73137;DHT22;62977;45.636;11.750;2023-01-15T01:18:16;5.50;82.40
73137;DHT22;62977;45.636;11.750;2023-01-15T01:20:41;5.60;82.30
73137;DHT22;62977;45.636;11.750;2023-01-15T01:23:07;5.60;82.20
73137;DHT22;62977;45.636;11.750;2023-01-15T01:25:33;5.50;82.40
73137;DHT22;62977;45.636;11.750;2023-01-15T01:27:58;5.60;82.30
73137;DHT22;62977;45.636;11.750;2023-01-15T01:30:24;5.70;82.30
73137;DHT22;62977;45.636;11.750;2023-01-15T01:32:49;5.80;82.20
73137;DHT22;62977;45.636;11.750;2023-01-15T01:35:15;5.80;81.90
73137;DHT22;62977;45.636;11.750;2023-01-15T01:37:41;6.00;82.00
73137;DHT22;62977;45.636;11.750;2023-01-15T01:40:07;5.80;81.90
73137;DHT22;62977;45.636;11.750;2023-01-15T01:42:32;5.90;81.90
73137;DHT22;62977;45.636;11.750;2023-01-15T01:45:05;6.00;81.60
73137;DHT22;62977;45.636;11.750;2023-01-15T01:47:32;5.80;81.80
73137;DHT22;62977;45.636;11.750;2023-01-15T01:50:03;6.10;81.80
73137;DHT22;62977;45.636;11.750;2023-01-15T01:52:34;5.80;81.70
73137;DHT22;62977;45.636;11.750;2023-01-15T01:55:02;5.80;81.90
73137;DHT22;62977;45.636;11.750;2023-01-15T01:57:28;5.90;81.70
73137;DHT22;62977;45.636;11.750;2023-01-15T01:59:56;5.90;81.80
73137;DHT22;62977;45.636;11.750;2023-01-15T02:02:22;5.90;81.70
73137;DHT22;62977;45.636;11.750;2023-01-15T02:04:48;5.80;81.70
73137;DHT22;62977;45.636;11.750;2023-01-15T02:07:14;6.10;81.60
73137;DHT22;62977;45.636;11.750;2023-01-15T02:09:40;6.00;81.70
73137;DHT22;62977;45.636;11.750;2023-01-15T02:12:23;6.00;82.00
73137;DHT22;62977;45.636;11.750;2023-01-15T02:15:04;6.00;82.00
73137;DHT22;62977;45.636;11.750;2023-01-15T02:17:48;5.90;81.70
73137;DHT22;62977;45.636;11.750;2023-01-15T02:20:39;5.90;81.70
73137;DHT22;62977;45.636;11.750;2023-01-15T02:23:23;5.80;81.40
73137;DHT22;62977;45.636;11.750;2023-01-15T02:28:33;6.10;81.20
73137;DHT22;62977;45.636;11.750;2023-01-15T02:31:13;6.30;81.00
73137;DHT22;62977;45.636;11.750;2023-01-15T02:33:50;6.40;81.00
73137;DHT22;62977;45.636;11.750;2023-01-15T02:36:18;6.40;81.00
73137;DHT22;62977;45.636;11.750;2023-01-15T02:38:47;6.60;80.90
73137;DHT22;62977;45.636;11.750;2023-01-15T02:41:14;6.60;80.80
73137;DHT22;62977;45.636;11.750;2023-01-15T02:43:45;6.30;81.10
73137;DHT22;62977;45.636;11.750;2023-01-15T02:46:13;6.40;81.30
73137;DHT22;62977;45.636;11.750;2023-01-15T02:48:40;6.30;81.10
73137;DHT22;62977;45.636;11.750;2023-01-15T02:51:11;6.30;81.20
73137;DHT22;62977;45.636;11.750;2023-01-15T02:53:40;6.40;81.40
73137;DHT22;62977;45.636;11.750;2023-01-15T02:56:10;6.30;81.30
73137;DHT22;62977;45.636;11.750;2023-01-15T02:58:39;6.20;81.50
73137;DHT22;62977;45.636;11.750;2023-01-15T03:01:33;6.20;81.70
73137;DHT22;62977;45.636;11.750;2023-01-15T03:06:37;6.40;81.80
73137;DHT22;62977;45.636;11.750;2023-01-15T03:09:05;6.50;81.50
73137;DHT22;62977;45.636;11.750;2023-01-15T03:11:33;6.60;81.30
73137;DHT22;62977;45.636;11.750;2023-01-15T03:14:20;6.60;81.30
73137;DHT22;62977;45.636;11.750;2023-01-15T03:16:58;6.60;81.30
73137;DHT22;62977;45.636;11.750;2023-01-15T03:22:04;6.80;81.10
73137;DHT22;62977;45.636;11.750;2023-01-15T03:25:07;6.90;80.90
73137;DHT22;62977;45.636;11.750;2023-01-15T03:27:25;6.90;80.80
73137;DHT22;62977;45.636;11.750;2023-01-15T03:29:57;6.80;80.40
73137;DHT22;62977;45.636;11.750;2023-01-15T03:32:23;6.90;80.70
73137;DHT22;62977;45.636;11.750;2023-01-15T03:34:52;6.80;80.90
73137;DHT22;62977;45.636;11.750;2023-01-15T03:37:20;6.60;81.20
73137;DHT22;62977;45.636;11.750;2023-01-15T03:39:48;6.60;81.50
73137;DHT22;62977;45.636;11.750;2023-01-15T03:48:07;6.50;81.70
73137;DHT22;62977;45.636;11.750;2023-01-15T03:50:46;6.30;82.10
73137;DHT22;62977;45.636;11.750;2023-01-15T03:55:47;6.40;82.20
73137;DHT22;62977;45.636;11.750;2023-01-15T03:58:25;6.40;82.30
73137;DHT22;62977;45.636;11.750;2023-01-15T04:00:53;6.10;82.30
73137;DHT22;62977;45.636;11.750;2023-01-15T04:03:21;6.30;82.40
73137;DHT22;62977;45.636;11.750;2023-01-15T04:05:49;6.30;82.50
73137;DHT22;62977;45.636;11.750;2023-01-15T04:08:16;6.20;82.80
73137;DHT22;62977;45.636;11.750;2023-01-15T04:10:56;6.20;83.10
73137;DHT22;62977;45.636;11.750;2023-01-15T04:13:22;6.20;83.00
73137;DHT22;62977;45.636;11.750;2023-01-15T04:15:48;6.20;83.30
73137;DHT22;62977;45.636;11.750;2023-01-15T04:18:14;6.10;83.10
73137;DHT22;62977;45.636;11.750;2023-01-15T04:20:39;6.20;83.40
73137;DHT22;62977;45.636;11.750;2023-01-15T04:23:05;6.10;83.10
73137;DHT22;62977;45.636;11.750;2023-01-15T04:25:30;6.40;83.00
73137;DHT22;62977;45.636;11.750;2023-01-15T04:27:56;6.30;83.00
73137;DHT22;62977;45.636;11.750;2023-01-15T04:30:22;6.50;82.80
73137;DHT22;62977;45.636;11.750;2023-01-15T04:32:49;6.40;82.90
73137;DHT22;62977;45.636;11.750;2023-01-15T04:35:15;6.30;83.30
73137;DHT22;62977;45.636;11.750;2023-01-15T04:37:41;6.20;83.10
73137;DHT22;62977;45.636;11.750;2023-01-15T04:40:07;6.40;82.80
73137;DHT22;62977;45.636;11.750;2023-01-15T04:42:33;6.40;82.90
73137;DHT22;62977;45.636;11.750;2023-01-15T04:45:17;6.50;82.70
73137;DHT22;62977;45.636;11.750;2023-01-15T04:47:43;6.50;82.70
73137;DHT22;62977;45.636;11.750;2023-01-15T04:50:10;6.50;82.70
73137;DHT22;62977;45.636;11.750;2023-01-15T04:52:36;6.50;82.80
73137;DHT22;62977;45.636;11.750;2023-01-15T04:55:02;6.50;82.70
73137;DHT22;62977;45.636;11.750;2023-01-15T04:57:28;6.40;82.70
73137;DHT22;62977;45.636;11.750;2023-01-15T04:59:54;6.30;82.80
73137;DHT22;62977;45.636;11.750;2023-01-15T05:02:19;6.40;82.90
73137;DHT22;62977;45.636;11.750;2023-01-15T05:04:45;6.50;83.00
73137;DHT22;62977;45.636;11.750;2023-01-15T05:07:11;6.50;82.80
73137;DHT22;62977;45.636;11.750;2023-01-15T05:09:36;6.40;83.10
73137;DHT22;62977;45.636;11.750;2023-01-15T05:12:02;6.50;83.00
73137;DHT22;62977;45.636;11.750;2023-01-15T05:14:28;6.40;82.90
73137;DHT22;62977;45.636;11.750;2023-01-15T05:16:54;6.50;83.00
73137;DHT22;62977;45.636;11.750;2023-01-15T05:19:20;6.50;82.90
73137;DHT22;62977;45.636;11.750;2023-01-15T05:21:45;6.50;82.60
73137;DHT22;62977;45.636;11.750;2023-01-15T05:24:14;6.40;82.80
73137;DHT22;62977;45.636;11.750;2023-01-15T05:26:41;6.60;83.10
73137;DHT22;62977;45.636;11.750;2023-01-15T05:29:07;6.30;83.20
73137;DHT22;62977;45.636;11.750;2023-01-15T05:31:32;6.20;83.50
73137;DHT22;62977;45.636;11.750;2023-01-15T05:33:59;6.10;83.80
73137;DHT22;62977;45.636;11.750;2023-01-15T05:36:27;6.40;83.60
73137;DHT22;62977;45.636;11.750;2023-01-15T05:38:54;6.40;83.60
73137;DHT22;62977;45.636;11.750;2023-01-15T05:41:22;6.50;83.30
73137;DHT22;62977;45.636;11.750;2023-01-15T05:44:09;6.30;83.30
73137;DHT22;62977;45.636;11.750;2023-01-15T05:46:36;6.50;83.20
73137;DHT22;62977;45.636;11.750;2023-01-15T05:49:05;6.50;83.00
73137;DHT22;62977;45.636;11.750;2023-01-15T05:51:33;6.60;82.90
73137;DHT22;62977;45.636;11.750;2023-01-15T05:54:00;6.60;83.20
73137;DHT22;62977;45.636;11.750;2023-01-15T05:56:25;6.70;82.80
73137;DHT22;62977;45.636;11.750;2023-01-15T05:58:51;6.60;83.00
73137;DHT22;62977;45.636;11.750;2023-01-15T06:01:17;6.40;83.00
73137;DHT22;62977;45.636;11.750;2023-01-15T06:03:43;6.40;83.00
73137;DHT22;62977;45.636;11.750;2023-01-15T06:06:16;6.40;83.30
73137;DHT22;62977;45.636;11.750;2023-01-15T06:08:43;6.60;83.20
73137;DHT22;62977;45.636;11.750;2023-01-15T06:11:09;6.70;82.80
73137;DHT22;62977;45.636;11.750;2023-01-15T06:13:36;6.60;83.00
73137;DHT22;62977;45.636;11.750;2023-01-15T06:16:04;6.70;82.80
73137;DHT22;62977;45.636;11.750;2023-01-15T06:18:29;6.70;82.60
73137;DHT22;62977;45.636;11.750;2023-01-15T06:20:55;6.80;82.60
73137;DHT22;62977;45.636;11.750;2023-01-15T06:23:21;6.80;82.70
73137;DHT22;62977;45.636;11.750;2023-01-15T06:25:46;6.80;82.80
73137;DHT22;62977;45.636;11.750;2023-01-15T06:28:12;6.80;82.80
73137;DHT22;62977;45.636;11.750;2023-01-15T06:30:39;6.80;82.90
73137;DHT22;62977;45.636;11.750;2023-01-15T06:33:07;6.90;82.80
73137;DHT22;62977;45.636;11.750;2023-01-15T06:35:34;6.80;82.60
73137;DHT22;62977;45.636;11.750;2023-01-15T06:37:59;6.90;82.80
73137;DHT22;62977;45.636;11.750;2023-01-15T06:40:25;6.80;82.60
73137;DHT22;62977;45.636;11.750;2023-01-15T06:42:53;6.80;82.80
73137;DHT22;62977;45.636;11.750;2023-01-15T06:45:38;6.90;82.80
73137;DHT22;62977;45.636;11.750;2023-01-15T06:48:23;6.80;82.80
73137;DHT22;62977;45.636;11.750;2023-01-15T06:50:49;6.70;82.90
73137;DHT22;62977;45.636;11.750;2023-01-15T06:53:15;6.60;82.90
73137;DHT22;62977;45.636;11.750;2023-01-15T06:55:40;6.60;83.00
73137;DHT22;62977;45.636;11.750;2023-01-15T06:58:06;6.70;83.20
73137;DHT22;62977;45.636;11.750;2023-01-15T07:00:32;6.70;83.20
73137;DHT22;62977;45.636;11.750;2023-01-15T07:03:02;6.60;83.40
73137;DHT22;62977;45.636;11.750;2023-01-15T07:05:28;6.70;83.00
73137;DHT22;62977;45.636;11.750;2023-01-15T07:07:54;6.70;83.10
73137;DHT22;62977;45.636;11.750;2023-01-15T07:10:19;6.60;83.10
73137;DHT22;62977;45.636;11.750;2023-01-15T07:12:45;6.50;83.20
73137;DHT22;62977;45.636;11.750;2023-01-15T07:15:11;6.60;83.10
73137;DHT22;62977;45.636;11.750;2023-01-15T07:17:37;6.70;83.10
73137;DHT22;62977;45.636;11.750;2023-01-15T07:20:03;6.90;83.20
73137;DHT22;62977;45.636;11.750;2023-01-15T07:22:29;7.00;82.90
73137;DHT22;62977;45.636;11.750;2023-01-15T07:24:55;7.00;83.10
73137;DHT22;62977;45.636;11.750;2023-01-15T07:27:21;7.00;83.10
73137;DHT22;62977;45.636;11.750;2023-01-15T07:29:47;7.00;83.30
73137;DHT22;62977;45.636;11.750;2023-01-15T07:32:14;6.90;83.40
73137;DHT22;62977;45.636;11.750;2023-01-15T07:34:40;6.70;83.40
73137;DHT22;62977;45.636;11.750;2023-01-15T07:37:05;7.00;83.20
73137;DHT22;62977;45.636;11.750;2023-01-15T07:39:32;6.80;83.20
73137;DHT22;62977;45.636;11.750;2023-01-15T07:41:58;7.00;83.10
73137;DHT22;62977;45.636;11.750;2023-01-15T07:44:42;7.10;82.90
73137;DHT22;62977;45.636;11.750;2023-01-15T07:47:26;7.30;82.60
73137;DHT22;62977;45.636;11.750;2023-01-15T07:50:19;7.40;82.60
73137;DHT22;62977;45.636;11.750;2023-01-15T07:52:45;7.20;82.50
73137;DHT22;62977;45.636;11.750;2023-01-15T07:55:11;7.20;82.90
73137;DHT22;62977;45.636;11.750;2023-01-15T07:57:38;7.40;82.90
73137;DHT22;62977;45.636;11.750;2023-01-15T08:00:06;7.30;82.70
73137;DHT22;62977;45.636;11.750;2023-01-15T08:02:32;7.50;82.70
73137;DHT22;62977;45.636;11.750;2023-01-15T08:04:57;7.50;82.50
73137;DHT22;62977;45.636;11.750;2023-01-15T08:07:23;7.50;82.50
73137;DHT22;62977;45.636;11.750;2023-01-15T08:09:49;7.60;82.60
73137;DHT22;62977;45.636;11.750;2023-01-15T08:12:15;7.60;82.30
73137;DHT22;62977;45.636;11.750;2023-01-15T08:14:59;7.60;82.40
73137;DHT22;62977;45.636;11.750;2023-01-15T08:17:46;7.70;82.20
73137;DHT22;62977;45.636;11.750;2023-01-15T08:20:20;7.80;82.20
73137;DHT22;62977;45.636;11.750;2023-01-15T08:22:46;7.80;82.00
73137;DHT22;62977;45.636;11.750;2023-01-15T08:25:17;7.90;81.80
73137;DHT22;62977;45.636;11.750;2023-01-15T08:27:43;7.80;81.50
73137;DHT22;62977;45.636;11.750;2023-01-15T08:30:18;7.80;81.40
73137;DHT22;62977;45.636;11.750;2023-01-15T08:32:44;7.80;81.30
73137;DHT22;62977;45.636;11.750;2023-01-15T08:35:10;8.10;81.20
73137;DHT22;62977;45.636;11.750;2023-01-15T08:37:37;8.00;81.20
73137;DHT22;62977;45.636;11.750;2023-01-15T08:40:04;8.00;80.50
73137;DHT22;62977;45.636;11.750;2023-01-15T08:42:29;8.00;80.30
73137;DHT22;62977;45.636;11.750;2023-01-15T08:44:55;8.10;79.90
73137;DHT22;62977;45.636;11.750;2023-01-15T08:47:21;7.90;80.00
73137;DHT22;62977;45.636;11.750;2023-01-15T08:49:46;8.20;80.20
73137;DHT22;62977;45.636;11.750;2023-01-15T08:52:15;8.20;80.40
73137;DHT22;62977;45.636;11.750;2023-01-15T08:54:41;8.20;80.40
73137;DHT22;62977;45.636;11.750;2023-01-15T08:57:06;8.30;80.10
73137;DHT22;62977;45.636;11.750;2023-01-15T08:59:34;8.40;79.70
73137;DHT22;62977;45.636;11.750;2023-01-15T09:02:00;8.40;79.80
73137;DHT22;62977;45.636;11.750;2023-01-15T09:04:25;8.50;79.30
73137;DHT22;62977;45.636;11.750;2023-01-15T09:06:52;8.50;79.60
73137;DHT22;62977;45.636;11.750;2023-01-15T09:09:17;8.30;80.00
73137;DHT22;62977;45.636;11.750;2023-01-15T09:11:44;8.40;80.10
73137;DHT22;62977;45.636;11.750;2023-01-15T09:14:11;8.50;80.00
73137;DHT22;62977;45.636;11.750;2023-01-15T09:16:38;8.40;79.70
73137;DHT22;62977;45.636;11.750;2023-01-15T09:19:05;8.60;79.70
73137;DHT22;62977;45.636;11.750;2023-01-15T09:21:31;8.50;79.30
73137;DHT22;62977;45.636;11.750;2023-01-15T09:23:57;8.50;79.60
73137;DHT22;62977;45.636;11.750;2023-01-15T09:26:31;8.60;79.60
73137;DHT22;62977;45.636;11.750;2023-01-15T09:28:58;8.70;79.80
73137;DHT22;62977;45.636;11.750;2023-01-15T09:31:24;8.60;79.40
73137;DHT22;62977;45.636;11.750;2023-01-15T09:33:50;8.60;80.10
73137;DHT22;62977;45.636;11.750;2023-01-15T09:36:32;8.50;79.60
73137;DHT22;62977;45.636;11.750;2023-01-15T09:38:59;8.50;79.90
73137;DHT22;62977;45.636;11.750;2023-01-15T09:41:29;8.50;80.00
73137;DHT22;62977;45.636;11.750;2023-01-15T09:44:25;8.50;79.70
73137;DHT22;62977;45.636;11.750;2023-01-15T09:47:10;8.50;80.10
73137;DHT22;62977;45.636;11.750;2023-01-15T09:57:29;8.40;80.90
73137;DHT22;62977;45.636;11.750;2023-01-15T09:59:56;8.40;81.00
73137;DHT22;62977;45.636;11.750;2023-01-15T10:02:58;8.50;81.00
73137;DHT22;62977;45.636;11.750;2023-01-15T10:10:19;8.70;80.60
73137;DHT22;62977;45.636;11.750;2023-01-15T10:12:50;8.80;80.60
73137;DHT22;62977;45.636;11.750;2023-01-15T10:15:36;8.80;80.50
73137;DHT22;62977;45.636;11.750;2023-01-15T10:18:05;8.80;80.60
73137;DHT22;62977;45.636;11.750;2023-01-15T10:21:00;8.80;80.50
73137;DHT22;62977;45.636;11.750;2023-01-15T10:23:41;8.70;80.70
73137;DHT22;62977;45.636;11.750;2023-01-15T10:45:23;9.00;80.70
73137;DHT22;62977;45.636;11.750;2023-01-15T10:47:55;9.00;80.70
73137;DHT22;62977;45.636;11.750;2023-01-15T10:50:24;9.00;80.60
73137;DHT22;62977;45.636;11.750;2023-01-15T10:53:10;9.00;80.70
73137;DHT22;62977;45.636;11.750;2023-01-15T10:55:45;9.10;80.80
73137;DHT22;62977;45.636;11.750;2023-01-15T10:58:32;9.00;80.40
73137;DHT22;62977;45.636;11.750;2023-01-15T11:01:03;9.00;80.80
73137;DHT22;62977;45.636;11.750;2023-01-15T11:03:40;8.90;81.00
73137;DHT22;62977;45.636;11.750;2023-01-15T11:06:14;9.00;81.40
73137;DHT22;62977;45.636;11.750;2023-01-15T11:08:58;9.00;81.30
73137;DHT22;62977;45.636;11.750;2023-01-15T11:11:37;9.00;81.40
73137;DHT22;62977;45.636;11.750;2023-01-15T11:14:40;9.00;81.50
73137;DHT22;62977;45.636;11.750;2023-01-15T11:20:28;8.90;81.80
73137;DHT22;62977;45.636;11.750;2023-01-15T11:22:56;8.90;81.80
73137;DHT22;62977;45.636;11.750;2023-01-15T11:25:30;8.90;81.70
73137;DHT22;62977;45.636;11.750;2023-01-15T11:27:58;8.90;81.70
73137;DHT22;62977;45.636;11.750;2023-01-15T11:32:58;9.00;81.20
73137;DHT22;62977;45.636;11.750;2023-01-15T11:35:25;8.90;80.70
73137;DHT22;62977;45.636;11.750;2023-01-15T11:38:13;9.00;80.50
73137;DHT22;62977;45.636;11.750;2023-01-15T11:40:39;9.00;80.90
73137;DHT22;62977;45.636;11.750;2023-01-15T11:43:27;9.00;81.00
73137;DHT22;62977;45.636;11.750;2023-01-15T11:49:13;9.00;81.10
73137;DHT22;62977;45.636;11.750;2023-01-15T11:52:00;9.00;81.10
73137;DHT22;62977;45.636;11.750;2023-01-15T11:54:26;9.00;80.80
73137;DHT22;62977;45.636;11.750;2023-01-15T11:56:54;9.10;81.10
73137;DHT22;62977;45.636;11.750;2023-01-15T11:59:21;9.30;81.00
73137;DHT22;62977;45.636;11.750;2023-01-15T12:04:36;9.20;81.00
73137;DHT22;62977;45.636;11.750;2023-01-15T12:07:04;9.30;81.00
73137;DHT22;62977;45.636;11.750;2023-01-15T12:17:32;9.40;81.10
73137;DHT22;62977;45.636;11.750;2023-01-15T12:22:49;9.40;81.30
73137;DHT22;62977;45.636;11.750;2023-01-15T12:25:48;9.40;81.30
73137;DHT22;62977;45.636;11.750;2023-01-15T12:28:26;9.40;81.60
73137;DHT22;62977;45.636;11.750;2023-01-15T12:36:17;9.50;81.90
73137;DHT22;62977;45.636;11.750;2023-01-15T12:38:59;9.60;81.80
73137;DHT22;62977;45.636;11.750;2023-01-15T12:41:37;9.50;81.90
73137;DHT22;62977;45.636;11.750;2023-01-15T12:47:24;9.50;81.50
73137;DHT22;62977;45.636;11.750;2023-01-15T12:50:02;9.40;81.50
73137;DHT22;62977;45.636;11.750;2023-01-15T12:52:34;9.30;81.40
73137;DHT22;62977;45.636;11.750;2023-01-15T12:55:13;9.30;81.50
73137;DHT22;62977;45.636;11.750;2023-01-15T12:57:44;9.30;81.80
73137;DHT22;62977;45.636;11.750;2023-01-15T13:00:19;9.20;81.30
73137;DHT22;62977;45.636;11.750;2023-01-15T13:05:49;9.10;81.50
73137;DHT22;62977;45.636;11.750;2023-01-15T13:08:33;9.30;81.60
73137;DHT22;62977;45.636;11.750;2023-01-15T13:10:59;9.30;81.90
73137;DHT22;62977;45.636;11.750;2023-01-15T13:13:31;9.20;82.10
73137;DHT22;62977;45.636;11.750;2023-01-15T13:16:21;9.20;81.80
73137;DHT22;62977;45.636;11.750;2023-01-15T13:21:38;9.10;82.30
73137;DHT22;62977;45.636;11.750;2023-01-15T13:27:02;9.10;83.00
73137;DHT22;62977;45.636;11.750;2023-01-15T13:29:42;9.00;82.70
73137;DHT22;62977;45.636;11.750;2023-01-15T13:32:17;9.00;83.20
73137;DHT22;62977;45.636;11.750;2023-01-15T13:39:59;9.10;83.30
73137;DHT22;62977;45.636;11.750;2023-01-15T13:42:26;9.20;83.30
73137;DHT22;62977;45.636;11.750;2023-01-15T13:47:32;8.90;83.70
73137;DHT22;62977;45.636;11.750;2023-01-15T13:50:02;8.90;84.20
73137;DHT22;62977;45.636;11.750;2023-01-15T13:52:33;8.80;84.30
73137;DHT22;62977;45.636;11.750;2023-01-15T13:57:41;8.70;84.90
73137;DHT22;62977;45.636;11.750;2023-01-15T14:00:35;8.70;84.90
73137;DHT22;62977;45.636;11.750;2023-01-15T14:03:22;8.70;84.70
73137;DHT22;62977;45.636;11.750;2023-01-15T14:06:05;8.90;84.50
73137;DHT22;62977;45.636;11.750;2023-01-15T14:08:40;9.00;84.30
73137;DHT22;62977;45.636;11.750;2023-01-15T14:17:29;8.90;84.60
73137;DHT22;62977;45.636;11.750;2023-01-15T14:34:09;8.60;85.40
73137;DHT22;62977;45.636;11.750;2023-01-15T14:37:01;8.50;85.60
73137;DHT22;62977;45.636;11.750;2023-01-15T14:50:38;8.60;85.60
73137;DHT22;62977;45.636;11.750;2023-01-15T14:53:18;8.60;85.40
73137;DHT22;62977;45.636;11.750;2023-01-15T15:00:52;8.50;85.50
73137;DHT22;62977;45.636;11.750;2023-01-15T15:03:23;8.40;85.90
73137;DHT22;62977;45.636;11.750;2023-01-15T15:05:50;8.50;85.80
73137;DHT22;62977;45.636;11.750;2023-01-15T15:08:18;8.50;86.00
73137;DHT22;62977;45.636;11.750;2023-01-15T15:10:47;8.50;86.20
73137;DHT22;62977;45.636;11.750;2023-01-15T15:16:25;8.50;86.10
73137;DHT22;62977;45.636;11.750;2023-01-15T15:19:09;8.50;85.80
73137;DHT22;62977;45.636;11.750;2023-01-15T15:21:41;8.60;86.00
73137;DHT22;62977;45.636;11.750;2023-01-15T15:24:28;8.60;85.90
73137;DHT22;62977;45.636;11.750;2023-01-15T15:26:54;8.60;85.90
73137;DHT22;62977;45.636;11.750;2023-01-15T15:29:20;8.70;85.80
73137;DHT22;62977;45.636;11.750;2023-01-15T15:31:49;8.60;86.20
73137;DHT22;62977;45.636;11.750;2023-01-15T15:36:59;8.50;86.10
73137;DHT22;62977;45.636;11.750;2023-01-15T15:39:39;8.50;86.30
73137;DHT22;62977;45.636;11.750;2023-01-15T15:42:12;8.50;86.20
73137;DHT22;62977;45.636;11.750;2023-01-15T15:44:59;8.40;86.90
73137;DHT22;62977;45.636;11.750;2023-01-15T15:47:43;8.50;86.80
73137;DHT22;62977;45.636;11.750;2023-01-15T15:50:31;8.50;86.60
73137;DHT22;62977;45.636;11.750;2023-01-15T15:52:57;8.40;86.90
73137;DHT22;62977;45.636;11.750;2023-01-15T15:55:25;8.40;86.60
73137;DHT22;62977;45.636;11.750;2023-01-15T15:57:55;8.40;86.60
73137;DHT22;62977;45.636;11.750;2023-01-15T16:00:33;8.40;86.90
73137;DHT22;62977;45.636;11.750;2023-01-15T16:03:04;8.40;86.70
73137;DHT22;62977;45.636;11.750;2023-01-15T16:05:31;8.30;86.80
73137;DHT22;62977;45.636;11.750;2023-01-15T16:08:15;8.50;86.60
73137;DHT22;62977;45.636;11.750;2023-01-15T16:10:42;8.20;87.20
73137;DHT22;62977;45.636;11.750;2023-01-15T16:13:15;8.30;87.30
73137;DHT22;62977;45.636;11.750;2023-01-15T16:15:43;8.40;87.00
73137;DHT22;62977;45.636;11.750;2023-01-15T16:18:26;8.40;87.10
73137;DHT22;62977;45.636;11.750;2023-01-15T16:20:52;8.30;87.10
73137;DHT22;62977;45.636;11.750;2023-01-15T16:23:23;8.30;87.00
73137;DHT22;62977;45.636;11.750;2023-01-15T16:28:37;8.20;87.30
73137;DHT22;62977;45.636;11.750;2023-01-15T16:31:11;8.20;87.20
73137;DHT22;62977;45.636;11.750;2023-01-15T16:33:39;8.30;87.30
73137;DHT22;62977;45.636;11.750;2023-01-15T16:36:06;8.20;87.30
73137;DHT22;62977;45.636;11.750;2023-01-15T16:38:41;8.20;87.20
73137;DHT22;62977;45.636;11.750;2023-01-15T16:41:58;8.20;87.00
73137;DHT22;62977;45.636;11.750;2023-01-15T16:44:06;8.20;87.20
73137;DHT22;62977;45.636;11.750;2023-01-15T16:46:48;8.20;87.40
73137;DHT22;62977;45.636;11.750;2023-01-15T16:51:48;8.20;87.50
73137;DHT22;62977;45.636;11.750;2023-01-15T16:57:23;8.20;87.30
73137;DHT22;62977;45.636;11.750;2023-01-15T17:00:01;8.30;87.40
73137;DHT22;62977;45.636;11.750;2023-01-15T17:02:41;8.30;87.30
73137;DHT22;62977;45.636;11.750;2023-01-15T17:05:17;8.40;87.20
73137;DHT22;62977;45.636;11.750;2023-01-15T17:07:46;8.50;87.20
73137;DHT22;62977;45.636;11.750;2023-01-15T17:10:19;8.30;87.00
73137;DHT22;62977;45.636;11.750;2023-01-15T17:12:45;8.40;87.20
73137;DHT22;62977;45.636;11.750;2023-01-15T17:17:48;8.40;87.00
73137;DHT22;62977;45.636;11.750;2023-01-15T17:20:14;8.40;87.00
73137;DHT22;62977;45.636;11.750;2023-01-15T17:22:45;8.40;87.20
73137;DHT22;62977;45.636;11.750;2023-01-15T17:25:26;8.30;87.20
73137;DHT22;62977;45.636;11.750;2023-01-15T17:27:53;8.50;87.00
73137;DHT22;62977;45.636;11.750;2023-01-15T17:30:20;8.50;87.00
73137;DHT22;62977;45.636;11.750;2023-01-15T17:32:47;8.40;86.90
73137;DHT22;62977;45.636;11.750;2023-01-15T17:35:21;8.40;87.20
73137;DHT22;62977;45.636;11.750;2023-01-15T17:37:47;8.30;87.40
73137;DHT22;62977;45.636;11.750;2023-01-15T17:40:13;8.30;87.30
73137;DHT22;62977;45.636;11.750;2023-01-15T17:42:39;8.40;87.10
73137;DHT22;62977;45.636;11.750;2023-01-15T17:45:04;8.40;87.20
73137;DHT22;62977;45.636;11.750;2023-01-15T17:47:30;8.40;87.00
73137;DHT22;62977;45.636;11.750;2023-01-15T17:49:56;8.30;87.40
73137;DHT22;62977;45.636;11.750;2023-01-15T17:52:21;8.30;87.40
73137;DHT22;62977;45.636;11.750;2023-01-15T17:54:47;8.30;87.30
73137;DHT22;62977;45.636;11.750;2023-01-15T17:57:32;8.40;87.20
73137;DHT22;62977;45.636;11.750;2023-01-15T18:00:16;8.40;87.30
73137;DHT22;62977;45.636;11.750;2023-01-15T18:03:01;8.40;87.40
73137;DHT22;62977;45.636;11.750;2023-01-15T18:05:47;8.30;87.20
73137;DHT22;62977;45.636;11.750;2023-01-15T18:08:15;8.40;87.20
73137;DHT22;62977;45.636;11.750;2023-01-15T18:10:43;8.40;87.20
73137;DHT22;62977;45.636;11.750;2023-01-15T18:13:09;8.30;87.20
73137;DHT22;62977;45.636;11.750;2023-01-15T18:15:37;8.20;87.60
73137;DHT22;62977;45.636;11.750;2023-01-15T18:18:02;8.20;87.40
73137;DHT22;62977;45.636;11.750;2023-01-15T18:20:28;8.30;87.40
73137;DHT22;62977;45.636;11.750;2023-01-15T18:22:54;8.30;87.40
73137;DHT22;62977;45.636;11.750;2023-01-15T18:25:19;8.30;87.40
73137;DHT22;62977;45.636;11.750;2023-01-15T18:27:45;8.30;87.40